createdAt,value
2023-05-14T00:00:39.401Z,62.53
2023-05-14T00:01:39.572Z,62.93
2023-05-14T00:02:39.774Z,63.04
2023-05-14T00:03:39.974Z,63.84
2023-05-14T00:04:40.168Z,64.25
2023-05-14T00:05:40.287Z,63.34
2023-05-14T00:06:40.452Z,62.84
2023-05-14T00:07:40.610Z,63.34
2023-05-14T00:08:40.767Z,63.54
2023-05-14T00:09:40.960Z,65.36
2023-05-14T00:10:41.132Z,63.13
2023-05-14T00:11:41.330Z,63.64
2023-05-14T00:12:41.488Z,63.84
2023-05-14T00:13:41.637Z,63.54
2023-05-14T00:14:41.816Z,65.06
2023-05-14T00:15:42.019Z,64.86
2023-05-14T00:16:42.153Z,64.96
2023-05-14T00:17:42.362Z,64.25
2023-05-14T00:18:42.537Z,64.45
2023-05-14T00:19:42.671Z,64.45
2023-05-14T00:20:42.847Z,63.13
2023-05-14T00:21:43.015Z,64.45
2023-05-14T00:22:43.170Z,63.34
2023-05-14T00:23:43.378Z,63.34
2023-05-14T00:24:43.565Z,65.06
2023-05-14T00:25:43.736Z,63.44
2023-05-14T00:26:43.885Z,64.89
2023-05-14T00:27:44.098Z,64.58
2023-05-14T00:28:44.243Z,63.17
2023-05-14T00:29:44.416Z,64.18
2023-05-14T00:30:44.575Z,62.66
2023-05-14T00:31:44.898Z,63.17
2023-05-14T00:32:44.980Z,63.27
2023-05-14T00:33:45.142Z,62.96
2023-05-14T00:34:45.297Z,62.56
2023-05-14T00:35:45.502Z,62.86
2023-05-14T00:36:45.663Z,62.86
2023-05-14T00:37:45.861Z,62.35
2023-05-14T00:38:46.026Z,63.07
2023-05-14T00:39:46.190Z,62.66
2023-05-14T00:40:46.354Z,62.05
2023-05-14T00:41:46.537Z,61.65
2023-05-14T00:42:46.694Z,61.35
2023-05-14T00:43:46.943Z,61.85
2023-05-14T00:44:47.055Z,62.26
2023-05-14T00:45:47.253Z,62.86
2023-05-14T00:46:47.440Z,62.86
2023-05-14T00:47:47.639Z,62.35
2023-05-14T00:48:47.758Z,62.05
2023-05-14T00:49:47.923Z,62.35
2023-05-14T00:50:48.070Z,61.95
2023-05-14T00:51:48.236Z,62.05
2023-05-14T00:52:48.409Z,62.46
2023-05-14T00:53:48.575Z,61.24
2023-05-14T00:54:48.736Z,62.15
2023-05-14T00:55:48.936Z,62.15
2023-05-14T00:56:49.092Z,62.05
2023-05-14T00:57:49.300Z,61.95
2023-05-14T00:58:49.459Z,63.07
2023-05-14T00:59:49.650Z,62.26
2023-05-14T01:00:49.849Z,62.26
2023-05-14T01:01:49.961Z,61.78
2023-05-14T01:02:50.224Z,61.17
2023-05-14T01:03:50.391Z,61.68
2023-05-14T01:04:50.470Z,61.17
2023-05-14T01:05:50.681Z,61.88
2023-05-14T01:06:50.833Z,61.68
2023-05-14T01:07:51.049Z,62.89
2023-05-14T01:08:51.202Z,62.49
2023-05-14T01:09:51.386Z,61.98
2023-05-14T01:10:51.557Z,62.29
2023-05-14T01:11:51.717Z,62.38
2023-05-14T01:12:51.855Z,62.29
2023-05-14T01:13:52.044Z,61.88
2023-05-14T01:14:52.256Z,62.38
2023-05-14T01:15:52.429Z,62.29
2023-05-14T01:16:52.618Z,62.79
2023-05-14T01:17:52.834Z,62.08
2023-05-14T01:18:52.980Z,61.68
2023-05-14T01:19:53.096Z,62.08
2023-05-14T01:20:53.277Z,61.88
2023-05-14T01:21:53.431Z,62.59
2023-05-14T01:22:53.619Z,61.78
2023-05-14T01:23:53.820Z,61.78
2023-05-14T01:24:53.974Z,61.98
2023-05-14T01:25:54.185Z,61.47
2023-05-14T01:26:54.352Z,62.38
2023-05-14T01:27:54.542Z,62.89
2023-05-14T01:28:54.750Z,63.09
2023-05-14T01:29:54.915Z,62.79
2023-05-14T01:30:55.103Z,62.49
2023-05-14T01:31:55.346Z,62.99
2023-05-14T01:32:55.566Z,61.47
2023-05-14T01:33:55.648Z,62.38
2023-05-14T01:34:55.828Z,62.52
2023-05-14T01:35:55.998Z,62.21
2023-05-14T01:36:56.144Z,63.02
2023-05-14T01:37:56.340Z,63.83
2023-05-14T01:38:56.507Z,63.43
2023-05-14T01:39:56.711Z,63.53
2023-05-14T01:40:56.860Z,63.12
2023-05-14T01:41:57.018Z,63.73
2023-05-14T01:42:57.210Z,63.83
2023-05-14T01:43:57.361Z,63.83
2023-05-14T01:44:57.530Z,64.54
2023-05-14T01:45:57.727Z,64.24
2023-05-14T01:46:57.873Z,63.73
2023-05-14T01:47:58.136Z,64.64
2023-05-14T01:48:58.238Z,64.58
2023-05-14T01:49:58.401Z,65.28
2023-05-14T01:50:58.630Z,64.78
2023-05-14T01:51:58.732Z,65.48
2023-05-14T01:52:58.894Z,65.39
2023-05-14T01:53:59.070Z,65.39
2023-05-14T01:54:59.240Z,65.99
2023-05-14T01:55:59.388Z,64.78
2023-05-14T01:56:59.563Z,64.67
2023-05-14T01:57:59.779Z,64.78
2023-05-14T01:58:59.904Z,65.18
2023-05-14T02:00:00.068Z,66.19
2023-05-14T02:01:00.280Z,65.59
2023-05-14T02:02:00.599Z,65.59
2023-05-14T02:03:00.699Z,65.92
2023-05-14T02:04:00.779Z,65.42
2023-05-14T02:05:01.069Z,65.72
2023-05-14T02:06:01.100Z,65.82
2023-05-14T02:07:01.321Z,65.92
2023-05-14T02:08:01.478Z,66.33
2023-05-14T02:09:01.644Z,65.62
2023-05-14T02:10:01.806Z,66.02
2023-05-14T02:11:01.974Z,64.91
2023-05-14T02:12:02.165Z,65.52
2023-05-14T02:13:02.313Z,65.52
2023-05-14T02:14:02.508Z,65.04
2023-05-14T02:15:02.649Z,65.95
2023-05-14T02:16:02.950Z,64.84
2023-05-14T02:17:03.024Z,64.64
2023-05-14T02:18:03.213Z,65.24
2023-05-14T02:19:03.398Z,66.46
2023-05-14T02:20:03.545Z,66.56
2023-05-14T02:21:03.718Z,65.85
2023-05-14T02:22:03.877Z,66.36
2023-05-14T02:23:04.064Z,65.45
2023-05-14T02:24:04.211Z,65.65
2023-05-14T02:25:04.419Z,65.34
2023-05-14T02:26:04.589Z,65.24
2023-05-14T02:27:04.764Z,65.04
2023-05-14T02:28:04.901Z,65.48
2023-05-14T02:29:05.110Z,65.27
2023-05-14T02:30:05.282Z,65.17
2023-05-14T02:31:05.510Z,66.08
2023-05-14T02:32:05.660Z,65.58
2023-05-14T02:33:05.874Z,65.68
2023-05-14T02:34:05.954Z,65.07
2023-05-14T02:35:06.134Z,67.30
2023-05-14T02:36:06.312Z,66.90
2023-05-14T02:37:06.488Z,65.68
2023-05-14T02:38:06.638Z,65.99
2023-05-14T02:39:06.806Z,65.58
2023-05-14T02:40:06.986Z,66.29
2023-05-14T02:41:07.143Z,65.88
2023-05-14T02:42:07.301Z,66.19
2023-05-14T02:43:07.492Z,67.20
2023-05-14T02:44:07.654Z,67.00
2023-05-14T02:45:07.864Z,66.29
2023-05-14T02:46:08.047Z,66.60
2023-05-14T02:47:08.281Z,67.10
2023-05-14T02:48:08.466Z,67.50
2023-05-14T02:49:08.577Z,66.39
2023-05-14T02:50:08.759Z,67.00
2023-05-14T02:51:08.917Z,66.90
2023-05-14T02:52:09.096Z,67.00
2023-05-14T02:53:09.294Z,66.49
2023-05-14T02:54:09.490Z,66.90
2023-05-14T02:55:09.650Z,66.29
2023-05-14T02:56:09.777Z,67.20
2023-05-14T02:57:09.961Z,67.00
2023-05-14T02:58:10.142Z,66.90
2023-05-14T02:59:10.362Z,66.39
2023-05-14T03:00:10.472Z,65.88
2023-05-14T03:01:10.691Z,65.78
2023-05-14T03:02:10.879Z,66.29
2023-05-14T03:03:11.099Z,66.60
2023-05-14T03:04:11.190Z,66.49
2023-05-14T03:05:11.362Z,65.58
2023-05-14T03:06:11.539Z,65.78
2023-05-14T03:07:11.728Z,66.49
2023-05-14T03:08:11.922Z,65.88
2023-05-14T03:09:12.097Z,65.78
2023-05-14T03:10:12.292Z,66.08
2023-05-14T03:11:12.469Z,65.58
2023-05-14T03:12:12.672Z,66.08
2023-05-14T03:13:12.843Z,65.58
2023-05-14T03:14:13.034Z,65.99
2023-05-14T03:15:13.219Z,66.49
2023-05-14T03:16:13.414Z,65.68
2023-05-14T03:17:13.590Z,66.39
2023-05-14T03:18:13.703Z,65.88
2023-05-14T03:19:13.995Z,66.69
2023-05-14T03:20:14.086Z,66.90
2023-05-14T03:21:14.230Z,66.90
2023-05-14T03:22:14.425Z,66.39
2023-05-14T03:23:14.610Z,67.00
2023-05-14T03:24:14.772Z,67.00
2023-05-14T03:25:14.931Z,67.30
2023-05-14T03:26:15.101Z,67.20
2023-05-14T03:27:15.305Z,67.41
2023-05-14T03:28:15.482Z,67.61
2023-05-14T03:29:15.661Z,68.32
2023-05-14T03:30:15.832Z,67.10
2023-05-14T03:31:16.004Z,67.00
2023-05-14T03:32:16.168Z,67.71
2023-05-14T03:33:16.354Z,67.20
2023-05-14T03:34:16.523Z,68.01
2023-05-14T03:35:16.701Z,66.69
2023-05-14T03:36:16.908Z,67.81
2023-05-14T03:37:17.050Z,67.71
2023-05-14T03:38:17.215Z,67.91
2023-05-14T03:39:17.379Z,67.10
2023-05-14T03:40:17.541Z,68.42
2023-05-14T03:41:17.733Z,67.61
2023-05-14T03:42:17.867Z,66.97
2023-05-14T03:43:18.039Z,68.49
2023-05-14T03:44:18.192Z,66.66
2023-05-14T03:45:18.371Z,67.88
2023-05-14T03:46:18.550Z,67.27
2023-05-14T03:47:18.716Z,67.07
2023-05-14T03:48:18.967Z,67.27
2023-05-14T03:49:19.102Z,66.83
2023-05-14T03:50:19.286Z,67.24
2023-05-14T03:51:19.459Z,67.95
2023-05-14T03:52:19.642Z,67.03
2023-05-14T03:53:19.826Z,67.44
2023-05-14T03:54:20.028Z,66.83
2023-05-14T03:55:20.182Z,66.50
2023-05-14T03:56:20.340Z,66.30
2023-05-14T03:57:20.518Z,67.61
2023-05-14T03:58:20.686Z,66.50
2023-05-14T03:59:20.862Z,66.80
2023-05-14T04:00:21.208Z,66.37
2023-05-14T04:01:21.210Z,65.86
2023-05-14T04:02:21.488Z,66.16
2023-05-14T04:03:21.662Z,66.06
2023-05-14T04:04:21.802Z,65.96
2023-05-14T04:05:21.978Z,65.42
2023-05-14T04:06:22.110Z,65.53
2023-05-14T04:07:22.280Z,65.62
2023-05-14T04:08:22.471Z,65.53
2023-05-14T04:09:22.638Z,65.53
2023-05-14T04:10:22.967Z,65.50
2023-05-14T04:11:23.005Z,64.58
2023-05-14T04:12:23.169Z,64.79
2023-05-14T04:13:23.350Z,64.69
2023-05-14T04:14:23.502Z,64.89
2023-05-14T04:15:23.667Z,64.96
2023-05-14T04:16:23.918Z,64.55
2023-05-14T04:17:24.118Z,64.76
2023-05-14T04:18:24.218Z,64.22
2023-05-14T04:19:24.418Z,63.71
2023-05-14T04:20:24.702Z,63.92
2023-05-14T04:21:24.751Z,63.81
2023-05-14T04:22:24.925Z,63.48
2023-05-14T04:23:25.117Z,62.87
2023-05-14T04:24:25.260Z,62.98
2023-05-14T04:25:25.416Z,62.67
2023-05-14T04:26:25.600Z,62.67
2023-05-14T04:27:25.768Z,62.04
2023-05-14T04:28:25.958Z,62.14
2023-05-14T04:29:26.137Z,61.53
2023-05-14T04:30:26.369Z,60.93
2023-05-14T04:31:26.539Z,60.82
2023-05-14T04:32:26.712Z,60.39
2023-05-14T04:33:26.841Z,60.09
2023-05-14T04:34:27.017Z,60.39
2023-05-14T04:35:27.183Z,60.29
2023-05-14T04:36:27.384Z,59.69
2023-05-14T04:37:27.535Z,59.18
2023-05-14T04:38:27.714Z,59.08
2023-05-14T04:39:27.880Z,59.28
2023-05-14T04:40:28.045Z,56.63
2023-05-14T04:41:28.241Z,56.76
2023-05-14T04:42:28.411Z,57.23
2023-05-14T04:43:28.568Z,57.94
2023-05-14T04:44:28.736Z,58.25
2023-05-14T04:45:28.906Z,56.32
2023-05-14T04:46:29.155Z,58.25
2023-05-14T04:47:29.273Z,57.41
2023-05-14T04:48:29.446Z,57.51
2023-05-14T04:49:29.626Z,57.81
2023-05-14T04:50:29.792Z,55.90
2023-05-14T04:51:29.965Z,57.31
2023-05-14T04:52:30.127Z,57.01
2023-05-14T04:53:30.291Z,55.16
2023-05-14T04:54:30.494Z,55.16
2023-05-14T04:55:30.655Z,55.87
2023-05-14T04:56:30.829Z,55.26
2023-05-14T04:57:30.998Z,53.34
2023-05-14T04:58:32.789Z,54.56
2023-05-14T04:59:31.383Z,54.73
2023-05-14T05:00:31.549Z,54.53
2023-05-14T05:01:31.736Z,54.73
2023-05-14T05:02:31.903Z,53.52
2023-05-14T05:03:32.098Z,53.52
2023-05-14T05:04:32.230Z,53.42
2023-05-14T05:05:32.410Z,53.70
2023-05-14T05:06:32.581Z,54.10
2023-05-14T05:07:32.761Z,53.60
2023-05-14T05:08:32.933Z,53.60
2023-05-14T05:09:33.121Z,53.00
2023-05-14T05:10:33.296Z,52.39
2023-05-14T05:11:33.483Z,52.37
2023-05-14T05:12:33.645Z,52.67
2023-05-14T05:13:33.835Z,51.06
2023-05-14T05:14:34.030Z,52.34
2023-05-14T05:15:34.193Z,51.34
2023-05-14T05:16:34.602Z,51.64
2023-05-14T05:17:34.607Z,51.93
2023-05-14T05:18:34.757Z,51.61
2023-05-14T05:19:43.027Z,51.09
2023-05-14T05:20:36.090Z,50.96
2023-05-14T05:21:35.270Z,50.03
2023-05-14T05:22:35.418Z,49.38
2023-05-14T05:23:35.605Z,47.13
2023-05-14T05:24:35.728Z,47.58
2023-05-14T05:25:35.995Z,47.14
2023-05-14T05:26:36.064Z,45.92
2023-05-14T05:27:36.253Z,46.17
2023-05-14T05:28:36.397Z,42.54
2023-05-14T05:29:36.586Z,43.61
2023-05-14T05:30:36.731Z,42.49
2023-05-14T05:31:36.969Z,42.15
2023-05-14T05:32:37.090Z,41.14
2023-05-14T05:33:37.260Z,41.71
2023-05-14T05:34:37.426Z,41.38
2023-05-14T05:35:37.624Z,41.66
2023-05-14T05:36:37.770Z,39.45
2023-05-14T05:37:37.954Z,38.43
2023-05-14T05:38:38.105Z,39.01
2023-05-14T05:39:38.306Z,39.37
2023-05-14T05:40:38.457Z,39.06
2023-05-14T05:41:38.660Z,37.35
2023-05-14T05:42:38.815Z,37.83
2023-05-14T05:43:38.984Z,37.81
2023-05-14T05:44:39.156Z,35.32
2023-05-14T05:45:39.338Z,36.49
2023-05-14T05:46:39.627Z,35.88
2023-05-14T05:47:39.734Z,33.79
2023-05-14T05:48:39.889Z,33.67
2023-05-14T05:49:40.082Z,34.25
2023-05-14T05:50:40.245Z,34.53
2023-05-14T05:51:40.438Z,32.45
2023-05-14T05:52:40.619Z,32.73
2023-05-14T05:53:40.822Z,32.72
2023-05-14T05:54:40.983Z,32.52
2023-05-14T05:55:41.184Z,31.82
2023-05-14T05:56:41.327Z,31.21
2023-05-14T05:57:41.496Z,32.39
2023-05-14T05:58:41.685Z,31.29
2023-05-14T05:59:41.843Z,30.79
2023-05-14T06:00:42.028Z,30.30
2023-05-14T06:01:42.215Z,31.18
2023-05-14T06:02:42.508Z,32.15
2023-05-14T06:03:42.540Z,30.46
2023-05-14T06:04:42.749Z,29.37
2023-05-14T06:05:42.941Z,29.07
2023-05-14T06:06:43.062Z,29.85
2023-05-14T06:07:43.246Z,28.85
2023-05-14T06:08:43.444Z,30.32
2023-05-14T06:09:43.624Z,28.83
2023-05-14T06:10:44.215Z,29.80
2023-05-14T06:11:43.950Z,27.64
2023-05-14T06:12:44.142Z,26.96
2023-05-14T06:13:44.311Z,26.89
2023-05-14T06:14:44.448Z,27.60
2023-05-14T06:15:44.634Z,29.09
2023-05-14T06:16:44.876Z,29.31
2023-05-14T06:17:45.018Z,29.72
2023-05-14T06:18:45.189Z,30.22
2023-05-14T06:19:45.299Z,29.94
2023-05-14T06:20:45.466Z,30.93
2023-05-14T06:21:45.646Z,31.70
2023-05-14T06:22:45.837Z,29.82
2023-05-14T06:23:46.028Z,28.93
2023-05-14T06:24:46.179Z,28.23
2023-05-14T06:25:46.739Z,28.93
2023-05-14T06:26:46.482Z,29.34
2023-05-14T06:27:46.673Z,29.85
2023-05-14T06:28:46.809Z,29.76
2023-05-14T06:29:46.995Z,30.57
2023-05-14T06:30:47.162Z,30.89
2023-05-14T06:31:47.387Z,31.19
2023-05-14T06:32:47.551Z,31.90
2023-05-14T06:33:47.705Z,31.79
2023-05-14T06:34:47.874Z,32.49
2023-05-14T06:35:48.052Z,32.60
2023-05-14T06:36:48.210Z,31.81
2023-05-14T06:37:48.414Z,31.82
2023-05-14T06:38:48.579Z,31.53
2023-05-14T06:39:48.742Z,31.74
2023-05-14T06:40:48.918Z,32.34
2023-05-14T06:41:49.091Z,33.14
2023-05-14T06:42:49.242Z,32.85
2023-05-14T06:43:49.459Z,32.15
2023-05-14T06:44:49.624Z,32.55
2023-05-14T06:45:49.806Z,30.97
2023-05-14T06:46:49.973Z,30.37
2023-05-14T06:47:50.205Z,31.18
2023-05-14T06:48:50.394Z,32.07
2023-05-14T06:49:50.501Z,32.46
2023-05-14T06:50:50.674Z,33.28
2023-05-14T06:51:50.825Z,31.88
2023-05-14T06:52:50.979Z,32.88
2023-05-14T06:53:51.201Z,33.47
2023-05-14T06:54:51.330Z,33.37
2023-05-14T06:55:51.511Z,33.75
2023-05-14T06:56:51.701Z,32.96
2023-05-14T06:57:51.834Z,33.26
2023-05-14T06:58:51.993Z,33.07
2023-05-14T06:59:52.288Z,32.58
2023-05-14T07:00:52.359Z,32.48
2023-05-14T07:01:52.583Z,32.70
2023-05-14T07:02:52.722Z,33.29
2023-05-14T07:03:52.950Z,33.00
2023-05-14T07:04:53.069Z,33.49
2023-05-14T07:05:53.239Z,33.50
2023-05-14T07:06:53.418Z,33.21
2023-05-14T07:07:53.569Z,34.00
2023-05-14T07:08:53.750Z,34.01
2023-05-14T07:09:53.914Z,34.81
2023-05-14T07:10:54.098Z,32.94
2023-05-14T07:11:54.257Z,33.64
2023-05-14T07:12:54.461Z,34.05
2023-05-14T07:13:54.623Z,32.96
2023-05-14T07:14:54.821Z,34.15
2023-05-14T07:15:54.991Z,35.64
2023-05-14T07:16:55.218Z,34.25
2023-05-14T07:17:55.558Z,34.64
2023-05-14T07:18:55.565Z,34.84
2023-05-14T07:19:55.691Z,34.13
2023-05-14T07:20:55.847Z,34.34
2023-05-14T07:21:56.031Z,34.34
2023-05-14T07:22:56.218Z,34.64
2023-05-14T07:23:56.417Z,33.95
2023-05-14T07:24:56.595Z,34.55
2023-05-14T07:25:56.766Z,34.55
2023-05-14T07:26:56.960Z,34.05
2023-05-14T07:27:57.117Z,33.36
2023-05-14T07:28:57.318Z,33.87
2023-05-14T07:29:57.452Z,34.17
2023-05-14T07:30:57.708Z,35.55
2023-05-14T07:31:57.780Z,35.67
2023-05-14T07:32:58.005Z,36.07
2023-05-14T07:33:58.154Z,35.75
2023-05-14T07:34:58.329Z,36.05
2023-05-14T07:35:58.497Z,35.36
2023-05-14T07:36:58.663Z,35.14
2023-05-14T07:37:58.841Z,35.13
2023-05-14T07:38:59.012Z,33.33
2023-05-14T07:39:59.150Z,34.30
2023-05-14T07:40:59.322Z,33.01
2023-05-14T07:41:59.506Z,33.01
2023-05-14T07:42:59.711Z,33.98
2023-05-14T07:43:59.846Z,34.36
2023-05-14T07:45:00.046Z,34.06
2023-05-14T07:46:00.211Z,32.56
2023-05-14T07:47:00.459Z,33.24
2023-05-14T07:48:00.725Z,33.14
2023-05-14T07:49:00.693Z,32.93
2023-05-14T07:50:00.894Z,33.31
2023-05-14T07:51:01.053Z,30.82
2023-05-14T07:52:01.244Z,31.50
2023-05-14T07:53:01.412Z,31.01
2023-05-14T07:54:01.552Z,30.60
2023-05-14T07:55:01.745Z,30.48
2023-05-14T07:56:01.923Z,31.16
2023-05-14T07:57:02.094Z,31.44
2023-05-14T07:58:02.269Z,30.54
2023-05-14T07:59:02.440Z,30.43
2023-05-14T08:00:02.639Z,30.19
2023-05-14T08:01:02.819Z,29.10
2023-05-14T08:02:03.026Z,29.38
2023-05-14T08:03:03.397Z,27.91
2023-05-14T08:04:03.482Z,28.11
2023-05-14T08:05:03.483Z,28.30
2023-05-14T08:06:03.670Z,28.69
2023-05-14T08:07:03.848Z,29.27
2023-05-14T08:08:04.023Z,28.88
2023-05-14T08:09:04.191Z,29.27
2023-05-14T08:10:04.386Z,28.88
2023-05-14T08:11:04.647Z,27.70
2023-05-14T08:12:04.710Z,28.39
2023-05-14T08:13:04.888Z,28.89
2023-05-14T08:14:05.051Z,27.81
2023-05-14T08:15:05.254Z,28.31
2023-05-14T08:16:05.410Z,28.70
2023-05-14T08:17:05.658Z,27.43
2023-05-14T08:18:05.774Z,28.61
2023-05-14T08:19:05.941Z,28.22
2023-05-14T08:20:06.125Z,29.30
2023-05-14T08:21:06.274Z,29.89
2023-05-14T08:22:06.447Z,29.48
2023-05-14T08:23:06.626Z,29.28
2023-05-14T08:24:06.791Z,28.29
2023-05-14T08:25:06.980Z,27.42
2023-05-14T08:26:07.150Z,27.12
2023-05-14T08:27:07.337Z,27.71
2023-05-14T08:28:07.534Z,27.22
2023-05-14T08:29:08.762Z,27.31
2023-05-14T08:30:07.910Z,26.70
2023-05-14T08:31:08.078Z,26.90
2023-05-14T08:32:19.378Z,27.28
2023-05-14T08:33:09.484Z,27.74
2023-05-14T08:34:08.600Z,26.75
2023-05-14T08:35:08.788Z,26.04
2023-05-14T08:36:08.960Z,26.11
2023-05-14T08:37:09.143Z,26.09
2023-05-14T08:38:09.326Z,24.02
2023-05-14T08:39:09.508Z,25.29
2023-05-14T08:40:09.681Z,23.72
2023-05-14T08:41:09.856Z,24.60
2023-05-14T08:42:10.036Z,23.30
2023-05-14T08:43:10.221Z,24.28
2023-05-14T08:44:10.398Z,22.89
2023-05-14T08:45:10.550Z,21.71
2023-05-14T08:46:10.720Z,21.32
2023-05-14T08:47:10.907Z,22.30
2023-05-14T08:48:11.274Z,21.32
2023-05-14T08:49:11.368Z,22.30
2023-05-14T08:50:11.462Z,23.17
2023-05-14T08:51:11.631Z,24.15
2023-05-14T08:52:11.801Z,23.16
2023-05-14T08:53:12.010Z,22.97
2023-05-14T08:54:12.172Z,23.82
2023-05-14T08:55:12.366Z,21.84
2023-05-14T08:56:12.524Z,20.46
2023-05-14T08:57:12.708Z,21.31
2023-05-14T08:58:12.900Z,20.34
2023-05-14T08:59:13.091Z,19.68
2023-05-14T09:00:13.243Z,20.67
2023-05-14T09:01:13.422Z,21.27
2023-05-14T09:02:13.762Z,21.77
2023-05-14T09:03:13.853Z,21.50
2023-05-14T09:04:14.030Z,22.39
2023-05-14T09:05:14.139Z,21.34
2023-05-14T09:06:14.321Z,22.13
2023-05-14T09:07:14.501Z,21.57
2023-05-14T09:08:14.642Z,22.46
2023-05-14T09:09:14.827Z,23.44
2023-05-14T09:10:15.013Z,23.64
2023-05-14T09:11:15.180Z,24.12
2023-05-14T09:12:15.361Z,23.72
2023-05-14T09:13:15.508Z,23.72
2023-05-14T09:14:15.666Z,22.14
2023-05-14T09:15:15.848Z,23.32
2023-05-14T09:16:16.078Z,22.34
2023-05-14T09:17:16.191Z,22.62
2023-05-14T09:18:16.365Z,23.68
2023-05-14T09:19:16.620Z,21.14
2023-05-14T09:20:16.732Z,22.97
2023-05-14T09:21:16.916Z,21.22
2023-05-14T09:22:17.121Z,21.98
2023-05-14T09:23:17.272Z,20.40
2023-05-14T09:24:17.447Z,20.70
2023-05-14T09:25:17.642Z,20.78
2023-05-14T09:26:17.836Z,20.57
2023-05-14T09:27:17.977Z,20.75
2023-05-14T09:28:18.141Z,19.18
2023-05-14T09:29:18.311Z,18.99
2023-05-14T09:30:18.517Z,18.41
2023-05-14T09:31:18.707Z,19.57
2023-05-14T09:32:18.840Z,18.99
2023-05-14T09:33:19.014Z,19.76
2023-05-14T09:34:19.203Z,18.60
2023-05-14T09:35:19.384Z,17.74
2023-05-14T09:36:19.550Z,18.83
2023-05-14T09:37:19.728Z,19.42
2023-05-14T09:38:19.898Z,20.21
2023-05-14T09:39:20.089Z,19.74
2023-05-14T09:40:20.335Z,20.83
2023-05-14T09:41:20.448Z,21.04
2023-05-14T09:42:20.626Z,20.86
2023-05-14T09:43:20.811Z,22.02
2023-05-14T09:44:20.996Z,21.62
2023-05-14T09:45:21.242Z,19.86
2023-05-14T09:46:21.353Z,20.24
2023-05-14T09:47:21.543Z,21.29
2023-05-14T09:48:21.723Z,19.04
2023-05-14T09:49:21.851Z,19.32
2023-05-14T09:50:22.185Z,19.96
2023-05-14T09:51:22.201Z,18.68
2023-05-14T09:52:22.378Z,19.15
2023-05-14T09:53:22.583Z,19.61
2023-05-14T09:54:22.723Z,18.33
2023-05-14T09:55:22.893Z,17.46
2023-05-14T09:56:23.067Z,17.75
2023-05-14T09:57:23.245Z,17.65
2023-05-14T09:58:23.458Z,18.22
2023-05-14T09:59:23.631Z,18.21
2023-05-14T10:00:23.940Z,17.05
2023-05-14T10:01:23.964Z,16.39
2023-05-14T10:02:24.180Z,17.16
2023-05-14T10:03:24.318Z,17.17
2023-05-14T10:04:24.512Z,17.18
2023-05-14T10:05:24.654Z,17.76
2023-05-14T10:06:24.824Z,17.39
2023-05-14T10:07:24.999Z,18.18
2023-05-14T10:08:25.190Z,18.68
2023-05-14T10:09:25.365Z,17.83
2023-05-14T10:10:25.791Z,19.10
2023-05-14T10:11:25.750Z,20.00
2023-05-14T10:12:25.912Z,20.20
2023-05-14T10:13:26.112Z,22.25
2023-05-14T10:14:26.258Z,21.97
2023-05-14T10:15:26.490Z,21.50
2023-05-14T10:16:26.624Z,21.41
2023-05-14T10:17:26.824Z,21.04
2023-05-14T10:18:26.978Z,21.84
2023-05-14T10:19:27.229Z,22.24
2023-05-14T10:20:27.309Z,23.13
2023-05-14T10:21:27.499Z,22.37
2023-05-14T10:22:27.638Z,22.97
2023-05-14T10:23:27.798Z,22.69
2023-05-14T10:24:27.962Z,22.70
2023-05-14T10:25:28.174Z,22.61
2023-05-14T10:26:28.347Z,22.72
2023-05-14T10:27:28.526Z,24.70
2023-05-14T10:28:28.687Z,25.49
2023-05-14T10:29:28.837Z,24.43
2023-05-14T10:30:29.001Z,25.13
2023-05-14T10:31:29.220Z,26.23
2023-05-14T10:32:29.425Z,25.34
2023-05-14T10:33:29.541Z,25.55
2023-05-14T10:34:29.682Z,26.74
2023-05-14T10:35:29.858Z,27.34
2023-05-14T10:36:30.005Z,25.98
2023-05-14T10:37:30.180Z,26.98
2023-05-14T10:38:30.344Z,26.30
2023-05-14T10:39:30.552Z,26.02
2023-05-14T10:40:30.707Z,26.53
2023-05-14T10:41:30.871Z,26.54
2023-05-14T10:42:31.039Z,27.25
2023-05-14T10:43:31.284Z,26.48
2023-05-14T10:44:31.420Z,26.89
2023-05-14T10:45:31.551Z,27.60
2023-05-14T10:46:31.768Z,29.20
2023-05-14T10:47:31.964Z,28.52
2023-05-14T10:48:32.088Z,29.21
2023-05-14T10:49:42.714Z,29.82
2023-05-14T10:50:33.417Z,31.32
2023-05-14T10:51:32.649Z,31.44
2023-05-14T10:52:32.806Z,29.96
2023-05-14T10:53:32.969Z,30.77
2023-05-14T10:54:33.139Z,30.77
2023-05-14T10:55:33.310Z,31.78
2023-05-14T10:56:33.571Z,33.09
2023-05-14T10:57:33.646Z,31.20
2023-05-14T10:58:33.853Z,31.91
2023-05-14T10:59:33.998Z,33.00
2023-05-14T11:00:34.172Z,34.11
2023-05-14T11:01:34.408Z,33.52
2023-05-14T11:02:34.531Z,34.31
2023-05-14T11:03:34.787Z,35.52
2023-05-14T11:04:34.869Z,35.63
2023-05-14T11:05:35.039Z,33.53
2023-05-14T11:06:35.208Z,33.35
2023-05-14T11:07:35.393Z,34.25
2023-05-14T11:08:35.579Z,34.55
2023-05-14T11:09:35.713Z,32.75
2023-05-14T11:10:35.890Z,34.46
2023-05-14T11:11:36.057Z,35.96
2023-05-14T11:12:36.264Z,33.97
2023-05-14T11:13:36.440Z,34.86
2023-05-14T11:14:36.587Z,35.66
2023-05-14T11:15:36.760Z,36.25
2023-05-14T11:16:36.961Z,35.17
2023-05-14T11:17:37.223Z,35.47
2023-05-14T11:18:37.321Z,35.47
2023-05-14T11:19:37.463Z,35.88
2023-05-14T11:20:37.635Z,36.37
2023-05-14T11:21:37.895Z,35.66
2023-05-14T11:22:38.006Z,36.25
2023-05-14T11:23:38.179Z,37.15
2023-05-14T11:24:38.351Z,36.16
2023-05-14T11:25:38.532Z,35.34
2023-05-14T11:26:38.771Z,34.34
2023-05-14T11:27:38.876Z,34.64
2023-05-14T11:28:39.062Z,35.13
2023-05-14T11:29:39.202Z,34.43
2023-05-14T11:30:39.400Z,36.60
2023-05-14T11:31:39.710Z,35.41
2023-05-14T11:32:39.772Z,34.30
2023-05-14T11:33:39.871Z,34.89
2023-05-14T11:34:40.081Z,35.99
2023-05-14T11:35:40.243Z,34.18
2023-05-14T11:36:40.380Z,34.38
2023-05-14T11:37:40.560Z,35.57
2023-05-14T11:38:40.745Z,34.28
2023-05-14T11:39:40.907Z,34.58
2023-05-14T11:40:41.095Z,35.17
2023-05-14T11:41:41.252Z,33.59
2023-05-14T11:42:41.432Z,34.28
2023-05-14T11:43:41.595Z,35.97
2023-05-14T11:44:41.794Z,37.16
2023-05-14T11:45:41.981Z,35.38
2023-05-14T11:46:42.178Z,36.05
2023-05-14T11:47:42.317Z,34.06
2023-05-14T11:48:42.444Z,34.34
2023-05-14T11:49:42.637Z,33.75
2023-05-14T11:50:42.792Z,34.63
2023-05-14T11:51:42.948Z,35.32
2023-05-14T11:52:43.169Z,34.01
2023-05-14T11:53:43.304Z,35.21
2023-05-14T11:57:21.246Z,32.71
2023-05-14T11:58:12.507Z,35.09
2023-05-14T11:59:12.681Z,33.19
2023-05-14T12:00:12.834Z,34.28
2023-05-14T12:01:13.027Z,32.20
2023-05-14T12:02:13.302Z,31.51
2023-05-14T12:03:13.427Z,32.58
2023-05-14T12:04:13.564Z,30.99
2023-05-14T12:05:13.734Z,31.69
2023-05-14T12:06:13.864Z,31.10
2023-05-14T12:07:14.037Z,32.78
2023-05-14T12:08:14.201Z,29.91
2023-05-14T12:09:14.365Z,31.20
2023-05-14T12:10:14.545Z,29.61
2023-05-14T12:11:14.719Z,30.40
2023-05-14T12:12:14.929Z,30.21
2023-05-14T12:13:15.037Z,29.60
2023-05-14T12:14:15.197Z,28.51
2023-05-14T12:15:15.387Z,31.57
2023-05-14T12:16:15.630Z,31.48
2023-05-14T12:17:15.775Z,30.88
2023-05-14T12:18:24.230Z,31.07
2023-05-14T12:19:17.136Z,32.06
2023-05-14T12:20:16.280Z,29.09
2023-05-14T12:21:16.484Z,30.77
2023-05-14T12:22:16.665Z,27.90
2023-05-14T12:23:16.864Z,28.70
2023-05-14T12:24:16.982Z,29.39
2023-05-14T12:25:17.177Z,28.21
2023-05-14T12:26:17.332Z,29.99
2023-05-14T12:27:17.531Z,30.30
2023-05-14T12:28:17.676Z,31.49
2023-05-14T12:29:17.855Z,30.60
2023-05-14T12:30:33.999Z,30.91
2023-05-14T12:31:19.284Z,30.33
2023-05-14T12:32:18.362Z,32.61
2023-05-14T12:33:18.542Z,31.84
2023-05-14T12:34:18.714Z,32.23
2023-05-14T12:35:18.996Z,31.85
2023-05-14T12:36:22.190Z,31.55
2023-05-14T12:37:19.219Z,32.84
2023-05-14T12:38:19.398Z,32.66
2023-05-14T12:39:19.589Z,32.96
2023-05-14T12:40:19.770Z,32.96
2023-05-14T12:41:19.955Z,33.24
2023-05-14T12:42:20.090Z,33.94
2023-05-14T12:43:20.276Z,33.24
2023-05-14T12:44:20.445Z,33.64
2023-05-14T12:45:20.629Z,34.63
2023-05-14T12:46:20.852Z,34.73
2023-05-14T12:47:21.139Z,33.94
2023-05-14T12:48:21.095Z,33.34
2023-05-14T12:49:21.275Z,34.83
2023-05-14T12:50:21.550Z,33.94
2023-05-14T12:51:21.605Z,33.83
2023-05-14T12:52:36.082Z,32.63
2023-05-14T12:53:22.962Z,33.62
2023-05-14T12:54:22.117Z,34.69
2023-05-14T12:55:22.295Z,34.40
2023-05-14T12:56:22.457Z,33.59
2023-05-14T12:57:22.649Z,33.78